sensor_id;sensor_type;location;lat;lon;timestamp;noise_LAeq;noise_LA_min;noise_LA_max;noise_LA01;noise_LA95
60872;Laerm;46714;50.118;14.462;2022-09-01T00:01:04;65.99;45.94;77.20;;
60872;Laerm;46714;50.118;14.462;2022-09-01T00:03:33;64.13;44.43;72.49;;
60872;Laerm;46714;50.118;14.462;2022-09-01T00:05:59;66.16;50.10;78.08;;
60872;Laerm;46714;50.118;14.462;2022-09-01T00:08:24;64.37;46.43;75.52;;
60872;Laerm;46714;50.118;14.462;2022-09-01T00:10:50;65.83;52.36;73.44;;
60872;Laerm;46714;50.118;14.462;2022-09-01T00:13:16;65.82;48.36;77.23;;
60872;Laerm;46714;50.118;14.462;2022-09-01T00:15:41;61.73;41.82;73.23;;
60872;Laerm;46714;50.118;14.462;2022-09-01T00:18:07;63.06;41.61;72.38;;
60872;Laerm;46714;50.118;14.462;2022-09-01T00:20:32;65.37;45.36;76.47;;
60872;Laerm;46714;50.118;14.462;2022-09-01T00:22:58;63.59;44.62;73.43;;
60872;Laerm;46714;50.118;14.462;2022-09-01T00:25:26;65.67;43.90;73.91;;
60872;Laerm;46714;50.118;14.462;2022-09-01T00:27:52;67.51;42.03;79.97;;
60872;Laerm;46714;50.118;14.462;2022-09-01T00:30:18;63.90;49.04;73.42;;
60872;Laerm;46714;50.118;14.462;2022-09-01T00:32:44;65.65;49.16;75.10;;
60872;Laerm;46714;50.118;14.462;2022-09-01T00:35:12;64.40;50.09;75.23;;
60872;Laerm;46714;50.118;14.462;2022-09-01T00:37:38;66.42;56.30;77.27;;
60872;Laerm;46714;50.118;14.462;2022-09-01T00:40:05;64.39;50.50;71.50;;
60872;Laerm;46714;50.118;14.462;2022-09-01T00:42:31;65.11;45.01;72.94;;
60872;Laerm;46714;50.118;14.462;2022-09-01T00:44:56;65.02;46.43;74.94;;
60872;Laerm;46714;50.118;14.462;2022-09-01T00:47:21;64.18;45.36;79.10;;
60872;Laerm;46714;50.118;14.462;2022-09-01T00:49:48;64.64;44.87;77.84;;
60872;Laerm;46714;50.118;14.462;2022-09-01T00:52:20;64.62;42.29;77.06;;
60872;Laerm;46714;50.118;14.462;2022-09-01T00:54:51;66.21;45.91;79.06;;
60872;Laerm;46714;50.118;14.462;2022-09-01T00:57:17;66.09;45.91;78.04;;
60872;Laerm;46714;50.118;14.462;2022-09-01T00:59:51;62.69;44.87;74.59;;
60872;Laerm;46714;50.118;14.462;2022-09-01T01:02:17;66.43;48.13;75.85;;
60872;Laerm;46714;50.118;14.462;2022-09-01T01:04:43;66.36;46.28;79.14;;
60872;Laerm;46714;50.118;14.462;2022-09-01T01:07:09;65.82;47.35;75.57;;
60872;Laerm;46714;50.118;14.462;2022-09-01T01:09:39;65.04;44.27;78.94;;
60872;Laerm;46714;50.118;14.462;2022-09-01T01:12:06;66.06;53.28;78.84;;
60872;Laerm;46714;50.118;14.462;2022-09-01T01:14:36;65.94;47.00;77.83;;
60872;Laerm;46714;50.118;14.462;2022-09-01T01:17:04;65.53;45.27;83.88;;
60872;Laerm;46714;50.118;14.462;2022-09-01T01:25:22;64.32;45.17;78.22;;
60872;Laerm;46714;50.118;14.462;2022-09-01T01:27:48;64.81;41.14;74.77;;
60872;Laerm;46714;50.118;14.462;2022-09-01T01:30:16;63.70;49.36;72.76;;
60872;Laerm;46714;50.118;14.462;2022-09-01T01:32:44;66.53;50.46;74.89;;
60872;Laerm;46714;50.118;14.462;2022-09-01T01:35:11;66.07;52.11;73.27;;
60872;Laerm;46714;50.118;14.462;2022-09-01T01:37:45;67.25;50.47;78.85;;
60872;Laerm;46714;50.118;14.462;2022-09-01T01:40:15;65.49;43.86;77.35;;
60872;Laerm;46714;50.118;14.462;2022-09-01T01:42:45;67.07;47.32;81.30;;
60872;Laerm;46714;50.118;14.462;2022-09-01T01:45:16;64.09;50.43;77.47;;
60872;Laerm;46714;50.118;14.462;2022-09-01T01:47:43;62.25;48.07;71.92;;
60872;Laerm;46714;50.118;14.462;2022-09-01T01:50:11;66.52;45.83;78.99;;
60872;Laerm;46714;50.118;14.462;2022-09-01T01:52:39;65.57;46.20;76.40;;
60872;Laerm;46714;50.118;14.462;2022-09-01T01:55:06;65.37;47.30;73.41;;
60872;Laerm;46714;50.118;14.462;2022-09-01T01:57:36;63.72;44.35;72.83;;
60872;Laerm;46714;50.118;14.462;2022-09-01T02:00:04;62.70;44.43;74.94;;
60872;Laerm;46714;50.118;14.462;2022-09-01T02:02:29;61.00;42.93;73.12;;
60872;Laerm;46714;50.118;14.462;2022-09-01T02:04:55;65.94;48.21;77.35;;
60872;Laerm;46714;50.118;14.462;2022-09-01T02:07:21;64.40;43.24;75.45;;
60872;Laerm;46714;50.118;14.462;2022-09-01T02:09:47;69.97;44.51;89.11;;
60872;Laerm;46714;50.118;14.462;2022-09-01T02:12:12;65.07;45.36;75.60;;
60872;Laerm;46714;50.118;14.462;2022-09-01T02:14:38;65.52;45.75;73.79;;
60872;Laerm;46714;50.118;14.462;2022-09-01T02:17:04;67.23;50.31;81.23;;
60872;Laerm;46714;50.118;14.462;2022-09-01T02:19:31;64.56;49.73;72.46;;
60872;Laerm;46714;50.118;14.462;2022-09-01T02:21:57;64.63;47.00;73.83;;
60872;Laerm;46714;50.118;14.462;2022-09-01T02:24:24;65.97;49.29;76.34;;
60872;Laerm;46714;50.118;14.462;2022-09-01T02:26:51;63.80;46.91;76.42;;
60872;Laerm;46714;50.118;14.462;2022-09-01T02:29:19;65.76;49.63;76.08;;
60872;Laerm;46714;50.118;14.462;2022-09-01T02:31:49;65.98;51.49;78.68;;
60872;Laerm;46714;50.118;14.462;2022-09-01T02:34:16;66.34;47.04;76.66;;
60872;Laerm;46714;50.118;14.462;2022-09-01T02:36:44;68.10;56.79;75.61;;
60872;Laerm;46714;50.118;14.462;2022-09-01T02:39:18;68.06;53.55;79.28;;
60872;Laerm;46714;50.118;14.462;2022-09-01T02:41:45;67.72;53.14;82.47;;
60872;Laerm;46714;50.118;14.462;2022-09-01T02:44:11;67.39;47.06;77.90;;
60872;Laerm;46714;50.118;14.462;2022-09-01T02:46:41;67.15;48.95;74.03;;
60872;Laerm;46714;50.118;14.462;2022-09-01T02:49:18;69.78;46.18;84.44;;
60872;Laerm;46714;50.118;14.462;2022-09-01T02:51:48;66.86;51.71;76.12;;
60872;Laerm;46714;50.118;14.462;2022-09-01T02:54:16;68.57;57.03;79.61;;
60872;Laerm;46714;50.118;14.462;2022-09-01T02:56:43;66.09;51.64;75.49;;
60872;Laerm;46714;50.118;14.462;2022-09-01T02:59:13;67.50;58.66;74.27;;
60872;Laerm;46714;50.118;14.462;2022-09-01T03:01:40;66.73;56.04;79.47;;
60872;Laerm;46714;50.118;14.462;2022-09-01T03:04:07;67.09;54.12;77.40;;
60872;Laerm;46714;50.118;14.462;2022-09-01T03:06:35;69.61;54.65;76.40;;
60872;Laerm;46714;50.118;14.462;2022-09-01T03:09:04;69.35;59.56;76.08;;
60872;Laerm;46714;50.118;14.462;2022-09-01T03:11:32;71.04;57.06;82.68;;
60872;Laerm;46714;50.118;14.462;2022-09-01T03:13:58;69.56;58.51;76.77;;
60872;Laerm;46714;50.118;14.462;2022-09-01T03:16:24;67.37;56.39;72.91;;
60872;Laerm;46714;50.118;14.462;2022-09-01T03:18:50;69.00;59.59;75.01;;
60872;Laerm;46714;50.118;14.462;2022-09-01T03:21:16;70.57;62.20;76.51;;
60872;Laerm;46714;50.118;14.462;2022-09-01T03:23:46;70.98;60.81;77.67;;
60872;Laerm;46714;50.118;14.462;2022-09-01T03:26:13;70.08;60.56;81.74;;
60872;Laerm;46714;50.118;14.462;2022-09-01T03:28:40;70.90;58.79;79.20;;
60872;Laerm;46714;50.118;14.462;2022-09-01T03:31:06;70.61;60.36;77.39;;
60872;Laerm;46714;50.118;14.462;2022-09-01T03:33:32;71.87;65.30;79.39;;
60872;Laerm;46714;50.118;14.462;2022-09-01T03:35:58;77.13;58.63;96.43;;
60872;Laerm;46714;50.118;14.462;2022-09-01T03:38:24;70.75;63.57;77.32;;
60872;Laerm;46714;50.118;14.462;2022-09-01T03:40:54;70.74;62.37;77.42;;
60872;Laerm;46714;50.118;14.462;2022-09-01T03:43:23;71.90;62.47;78.11;;
60872;Laerm;46714;50.118;14.462;2022-09-01T03:45:51;71.54;63.71;78.04;;
60872;Laerm;46714;50.118;14.462;2022-09-01T03:48:18;71.65;63.77;78.76;;
60872;Laerm;46714;50.118;14.462;2022-09-01T03:50:44;72.16;65.57;80.15;;
60872;Laerm;46714;50.118;14.462;2022-09-01T03:53:13;71.18;64.33;78.31;;
60872;Laerm;46714;50.118;14.462;2022-09-01T03:55:43;72.47;62.33;81.55;;
60872;Laerm;46714;50.118;14.462;2022-09-01T03:58:09;72.72;65.21;79.38;;
60872;Laerm;46714;50.118;14.462;2022-09-01T04:00:39;72.82;64.90;79.73;;
60872;Laerm;46714;50.118;14.462;2022-09-01T04:03:06;71.99;63.27;78.67;;
60872;Laerm;46714;50.118;14.462;2022-09-01T04:05:34;72.59;65.21;77.95;;
60872;Laerm;46714;50.118;14.462;2022-09-01T04:08:04;73.07;66.95;78.73;;
60872;Laerm;46714;50.118;14.462;2022-09-01T04:10:31;73.01;65.39;78.75;;
60872;Laerm;46714;50.118;14.462;2022-09-01T04:12:58;72.99;66.68;78.27;;
60872;Laerm;46714;50.118;14.462;2022-09-01T04:15:25;73.46;68.18;78.82;;
60872;Laerm;46714;50.118;14.462;2022-09-01T04:17:52;73.50;68.29;81.80;;
60872;Laerm;46714;50.118;14.462;2022-09-01T04:20:46;73.08;66.83;78.90;;
60872;Laerm;46714;50.118;14.462;2022-09-01T04:23:20;73.56;68.44;79.21;;
60872;Laerm;46714;50.118;14.462;2022-09-01T04:25:48;74.42;68.93;79.81;;
60872;Laerm;46714;50.118;14.462;2022-09-01T04:28:19;75.44;67.97;92.73;;
60872;Laerm;46714;50.118;14.462;2022-09-01T04:30:53;74.36;67.37;83.88;;
60872;Laerm;46714;50.118;14.462;2022-09-01T04:33:24;74.00;67.99;80.28;;
60872;Laerm;46714;50.118;14.462;2022-09-01T04:35:51;74.14;68.91;78.86;;
60872;Laerm;46714;50.118;14.462;2022-09-01T04:38:19;73.15;65.08;78.25;;
60872;Laerm;46714;50.118;14.462;2022-09-01T04:40:46;73.75;65.71;82.37;;
60872;Laerm;46714;50.118;14.462;2022-09-01T04:43:13;76.40;63.57;99.55;;
60872;Laerm;46714;50.118;14.462;2022-09-01T04:45:38;73.62;65.73;84.44;;
60872;Laerm;46714;50.118;14.462;2022-09-01T04:48:05;73.83;66.92;79.71;;
60872;Laerm;46714;50.118;14.462;2022-09-01T04:50:31;73.85;65.39;79.18;;
60872;Laerm;46714;50.118;14.462;2022-09-01T04:53:00;73.54;68.53;80.01;;
60872;Laerm;46714;50.118;14.462;2022-09-01T04:55:27;73.12;66.13;78.03;;
60872;Laerm;46714;50.118;14.462;2022-09-01T04:57:55;73.68;67.62;81.97;;
60872;Laerm;46714;50.118;14.462;2022-09-01T05:00:23;75.30;69.16;90.68;;
60872;Laerm;46714;50.118;14.462;2022-09-01T05:02:58;77.00;68.98;93.76;;
60872;Laerm;46714;50.118;14.462;2022-09-01T05:05:28;76.05;66.17;94.44;;
60872;Laerm;46714;50.118;14.462;2022-09-01T05:07:54;73.86;66.69;78.90;;
60872;Laerm;46714;50.118;14.462;2022-09-01T05:10:22;73.90;66.95;81.08;;
60872;Laerm;46714;50.118;14.462;2022-09-01T05:12:53;73.86;68.59;80.66;;
60872;Laerm;46714;50.118;14.462;2022-09-01T05:15:18;72.72;65.69;77.34;;
60872;Laerm;46714;50.118;14.462;2022-09-01T05:17:44;73.31;66.05;79.40;;
60872;Laerm;46714;50.118;14.462;2022-09-01T05:20:11;74.26;68.08;80.34;;
60872;Laerm;46714;50.118;14.462;2022-09-01T05:22:38;73.85;66.49;82.91;;
60872;Laerm;46714;50.118;14.462;2022-09-01T05:25:06;74.28;69.68;83.10;;
60872;Laerm;46714;50.118;14.462;2022-09-01T05:27:42;73.38;66.12;79.00;;
60872;Laerm;46714;50.118;14.462;2022-09-01T05:30:17;73.83;67.26;82.72;;
60872;Laerm;46714;50.118;14.462;2022-09-01T05:32:43;73.57;67.52;79.88;;
60872;Laerm;46714;50.118;14.462;2022-09-01T05:35:09;74.87;69.89;80.66;;
60872;Laerm;46714;50.118;14.462;2022-09-01T05:37:35;77.31;69.08;100.19;;
60872;Laerm;46714;50.118;14.462;2022-09-01T05:40:06;74.87;68.91;88.75;;
60872;Laerm;46714;50.118;14.462;2022-09-01T05:42:33;74.45;66.90;81.23;;
60872;Laerm;46714;50.118;14.462;2022-09-01T05:44:59;72.84;63.58;80.25;;
60872;Laerm;46714;50.118;14.462;2022-09-01T05:47:26;75.25;67.69;90.99;;
60872;Laerm;46714;50.118;14.462;2022-09-01T05:49:53;73.54;64.28;78.78;;
60872;Laerm;46714;50.118;14.462;2022-09-01T05:52:19;84.54;67.90;102.55;;
60872;Laerm;46714;50.118;14.462;2022-09-01T05:54:49;74.80;68.18;84.75;;
60872;Laerm;46714;50.118;14.462;2022-09-01T05:57:16;74.13;68.03;81.17;;
60872;Laerm;46714;50.118;14.462;2022-09-01T05:59:41;72.78;66.05;80.96;;
60872;Laerm;46714;50.118;14.462;2022-09-01T06:02:07;81.62;67.31;108.69;;
60872;Laerm;46714;50.118;14.462;2022-09-01T06:04:33;73.75;67.84;80.05;;
60872;Laerm;46714;50.118;14.462;2022-09-01T06:07:00;73.59;66.34;80.06;;
60872;Laerm;46714;50.118;14.462;2022-09-01T06:09:26;75.44;67.00;89.41;;
60872;Laerm;46714;50.118;14.462;2022-09-01T06:11:52;73.07;67.09;79.78;;
60872;Laerm;46714;50.118;14.462;2022-09-01T06:14:21;74.04;66.78;81.78;;
60872;Laerm;46714;50.118;14.462;2022-09-01T06:16:46;73.56;66.71;79.21;;
60872;Laerm;46714;50.118;14.462;2022-09-01T06:19:12;74.77;69.63;83.35;;
60872;Laerm;46714;50.118;14.462;2022-09-01T06:21:38;73.19;61.07;78.58;;
60872;Laerm;46714;50.118;14.462;2022-09-01T06:24:04;72.69;62.10;79.62;;
60872;Laerm;46714;50.118;14.462;2022-09-01T06:26:35;73.59;64.93;78.96;;
60872;Laerm;46714;50.118;14.462;2022-09-01T06:29:04;73.10;65.31;78.69;;
60872;Laerm;46714;50.118;14.462;2022-09-01T06:31:32;73.93;65.54;81.54;;
60872;Laerm;46714;50.118;14.462;2022-09-01T06:34:00;77.14;67.47;94.14;;
60872;Laerm;46714;50.118;14.462;2022-09-01T06:36:26;72.81;63.52;79.52;;
60872;Laerm;46714;50.118;14.462;2022-09-01T06:38:53;72.63;64.96;78.14;;
60872;Laerm;46714;50.118;14.462;2022-09-01T06:41:21;72.76;63.78;77.16;;
60872;Laerm;46714;50.118;14.462;2022-09-01T06:43:50;75.55;65.53;90.95;;
60872;Laerm;46714;50.118;14.462;2022-09-01T06:46:18;74.21;65.99;89.42;;
60872;Laerm;46714;50.118;14.462;2022-09-01T06:48:44;76.28;66.49;94.23;;
60872;Laerm;46714;50.118;14.462;2022-09-01T06:51:12;74.90;63.94;95.56;;
60872;Laerm;46714;50.118;14.462;2022-09-01T06:53:39;73.06;66.25;77.74;;
60872;Laerm;46714;50.118;14.462;2022-09-01T06:56:04;76.68;68.42;99.54;;
60872;Laerm;46714;50.118;14.462;2022-09-01T06:58:29;73.14;64.49;77.46;;
60872;Laerm;46714;50.118;14.462;2022-09-01T07:00:55;73.80;67.72;82.90;;
60872;Laerm;46714;50.118;14.462;2022-09-01T07:03:20;73.35;63.82;78.91;;
60872;Laerm;46714;50.118;14.462;2022-09-01T07:05:47;72.84;66.11;77.02;;
60872;Laerm;46714;50.118;14.462;2022-09-01T07:08:15;73.08;66.53;80.32;;
60872;Laerm;46714;50.118;14.462;2022-09-01T07:10:50;73.36;68.03;79.13;;
60872;Laerm;46714;50.118;14.462;2022-09-01T07:13:20;73.73;65.83;84.15;;
60872;Laerm;46714;50.118;14.462;2022-09-01T07:15:52;74.54;68.85;81.84;;
60872;Laerm;46714;50.118;14.462;2022-09-01T07:18:22;74.22;67.65;81.89;;
60872;Laerm;46714;50.118;14.462;2022-09-01T07:20:50;74.35;68.88;80.19;;
60872;Laerm;46714;50.118;14.462;2022-09-01T07:23:16;74.94;68.50;80.74;;
60872;Laerm;46714;50.118;14.462;2022-09-01T07:25:45;74.38;68.92;77.91;;
60872;Laerm;46714;50.118;14.462;2022-09-01T07:28:13;74.90;69.55;80.97;;
60872;Laerm;46714;50.118;14.462;2022-09-01T07:30:45;76.28;68.29;94.49;;
60872;Laerm;46714;50.118;14.462;2022-09-01T07:33:14;73.96;69.63;78.18;;
60872;Laerm;46714;50.118;14.462;2022-09-01T07:35:40;73.89;67.53;78.84;;
60872;Laerm;46714;50.118;14.462;2022-09-01T07:38:08;74.01;69.85;77.80;;
60872;Laerm;46714;50.118;14.462;2022-09-01T07:40:36;74.52;69.65;79.23;;
60872;Laerm;46714;50.118;14.462;2022-09-01T07:43:08;73.89;68.83;78.99;;
60872;Laerm;46714;50.118;14.462;2022-09-01T07:45:43;74.84;70.59;79.48;;
60872;Laerm;46714;50.118;14.462;2022-09-01T07:48:11;73.93;69.91;78.20;;
60872;Laerm;46714;50.118;14.462;2022-09-01T07:50:42;76.68;69.09;97.44;;
60872;Laerm;46714;50.118;14.462;2022-09-01T07:53:22;74.60;70.56;79.83;;
60872;Laerm;46714;50.118;14.462;2022-09-01T07:55:50;75.46;70.14;91.71;;
60872;Laerm;46714;50.118;14.462;2022-09-01T07:58:18;74.41;69.49;80.23;;
60872;Laerm;46714;50.118;14.462;2022-09-01T08:00:45;73.98;65.22;80.94;;
60872;Laerm;46714;50.118;14.462;2022-09-01T08:03:14;74.66;68.15;87.80;;
60872;Laerm;46714;50.118;14.462;2022-09-01T08:05:39;74.81;68.75;81.46;;
60872;Laerm;46714;50.118;14.462;2022-09-01T08:08:05;74.70;69.16;82.55;;
60872;Laerm;46714;50.118;14.462;2022-09-01T08:10:31;74.62;69.90;78.72;;
60872;Laerm;46714;50.118;14.462;2022-09-01T08:12:57;74.17;67.95;79.04;;
60872;Laerm;46714;50.118;14.462;2022-09-01T08:15:23;74.58;67.51;83.62;;
60872;Laerm;46714;50.118;14.462;2022-09-01T08:17:48;74.37;68.11;79.07;;
60872;Laerm;46714;50.118;14.462;2022-09-01T08:20:14;74.38;67.16;80.45;;
60872;Laerm;46714;50.118;14.462;2022-09-01T08:22:39;74.90;70.54;80.18;;
60872;Laerm;46714;50.118;14.462;2022-09-01T08:25:07;74.21;69.69;78.76;;
60872;Laerm;46714;50.118;14.462;2022-09-01T08:27:36;74.28;68.39;79.93;;
60872;Laerm;46714;50.118;14.462;2022-09-01T08:30:08;76.85;70.16;93.37;;
60872;Laerm;46714;50.118;14.462;2022-09-01T08:32:35;73.79;68.54;78.66;;
60872;Laerm;46714;50.118;14.462;2022-09-01T08:35:01;78.16;68.92;96.78;;
60872;Laerm;46714;50.118;14.462;2022-09-01T08:37:26;74.19;70.03;78.94;;
60872;Laerm;46714;50.118;14.462;2022-09-01T08:39:52;73.85;67.02;81.76;;
60872;Laerm;46714;50.118;14.462;2022-09-01T08:45:04;74.93;69.09;83.97;;
60872;Laerm;46714;50.118;14.462;2022-09-01T08:47:32;80.48;68.91;100.15;;
60872;Laerm;46714;50.118;14.462;2022-09-01T08:49:58;74.74;67.57;85.52;;
60872;Laerm;46714;50.118;14.462;2022-09-01T08:52:33;75.18;70.72;85.29;;
60872;Laerm;46714;50.118;14.462;2022-09-01T08:55:07;74.56;69.53;81.17;;
60872;Laerm;46714;50.118;14.462;2022-09-01T08:57:37;76.58;69.17;93.12;;
60872;Laerm;46714;50.118;14.462;2022-09-01T09:00:09;74.47;69.22;81.52;;
60872;Laerm;46714;50.118;14.462;2022-09-01T09:02:45;74.12;69.50;81.11;;
60872;Laerm;46714;50.118;14.462;2022-09-01T09:08:05;74.66;70.11;84.19;;
60872;Laerm;46714;50.118;14.462;2022-09-01T09:16:19;74.20;68.52;79.57;;
60872;Laerm;46714;50.118;14.462;2022-09-01T09:18:55;74.09;68.83;79.47;;
60872;Laerm;46714;50.118;14.462;2022-09-01T09:26:31;74.90;70.27;86.27;;
60872;Laerm;46714;50.118;14.462;2022-09-01T09:28:57;75.16;71.22;89.53;;
60872;Laerm;46714;50.118;14.462;2022-09-01T09:33:56;74.75;70.65;78.50;;
60872;Laerm;46714;50.118;14.462;2022-09-01T09:36:31;75.05;70.44;83.77;;
60872;Laerm;46714;50.118;14.462;2022-09-01T09:39:13;74.22;67.01;79.34;;
60872;Laerm;46714;50.118;14.462;2022-09-01T09:41:42;75.91;69.77;85.84;;
60872;Laerm;46714;50.118;14.462;2022-09-01T09:44:26;75.00;70.02;80.32;;
60872;Laerm;46714;50.118;14.462;2022-09-01T09:46:53;74.82;69.52;80.61;;
60872;Laerm;46714;50.118;14.462;2022-09-01T09:49:30;74.35;66.08;80.54;;
60872;Laerm;46714;50.118;14.462;2022-09-01T09:54:33;73.72;67.39;78.69;;
60872;Laerm;46714;50.118;14.462;2022-09-01T09:59:43;74.43;68.32;81.28;;
60872;Laerm;46714;50.118;14.462;2022-09-01T10:02:30;74.04;66.05;80.85;;
60872;Laerm;46714;50.118;14.462;2022-09-01T10:04:58;74.09;67.44;78.26;;
60872;Laerm;46714;50.118;14.462;2022-09-01T10:07:31;79.60;68.07;102.57;;
60872;Laerm;46714;50.118;14.462;2022-09-01T10:10:00;78.85;70.37;99.37;;
60872;Laerm;46714;50.118;14.462;2022-09-01T10:12:27;73.53;67.70;79.50;;
60872;Laerm;46714;50.118;14.462;2022-09-01T10:15:02;74.23;70.38;80.44;;
60872;Laerm;46714;50.118;14.462;2022-09-01T10:17:31;73.95;68.97;80.29;;
60872;Laerm;46714;50.118;14.462;2022-09-01T10:20:15;75.73;68.49;91.90;;
60872;Laerm;46714;50.118;14.462;2022-09-01T10:22:42;73.50;66.37;78.39;;
60872;Laerm;46714;50.118;14.462;2022-09-01T10:25:20;78.17;69.99;95.63;;
60872;Laerm;46714;50.118;14.462;2022-09-01T10:27:56;74.45;67.46;79.94;;
60872;Laerm;46714;50.118;14.462;2022-09-01T10:30:22;73.91;69.08;80.28;;
60872;Laerm;46714;50.118;14.462;2022-09-01T10:32:54;74.07;69.32;79.23;;
60872;Laerm;46714;50.118;14.462;2022-09-01T10:35:23;73.91;67.70;87.39;;
60872;Laerm;46714;50.118;14.462;2022-09-01T10:37:53;74.25;68.84;78.97;;
60872;Laerm;46714;50.118;14.462;2022-09-01T10:42:49;73.31;68.09;78.25;;
60872;Laerm;46714;50.118;14.462;2022-09-01T10:53:50;74.30;66.18;85.45;;
60872;Laerm;46714;50.118;14.462;2022-09-01T10:59:06;73.97;67.51;84.71;;
60872;Laerm;46714;50.118;14.462;2022-09-01T11:04:12;74.30;68.16;79.39;;
60872;Laerm;46714;50.118;14.462;2022-09-01T11:09:38;74.39;69.55;87.72;;
60872;Laerm;46714;50.118;14.462;2022-09-01T11:12:24;76.01;69.66;93.43;;
60872;Laerm;46714;50.118;14.462;2022-09-01T11:14:58;74.52;67.22;82.16;;
60872;Laerm;46714;50.118;14.462;2022-09-01T11:17:28;74.54;68.96;80.15;;
60872;Laerm;46714;50.118;14.462;2022-09-01T11:20:04;74.72;68.81;82.52;;
60872;Laerm;46714;50.118;14.462;2022-09-01T11:28:01;73.61;69.27;77.18;;
60872;Laerm;46714;50.118;14.462;2022-09-01T11:33:07;76.34;70.91;96.36;;
60872;Laerm;46714;50.118;14.462;2022-09-01T11:35:36;74.45;68.84;80.54;;
60872;Laerm;46714;50.118;14.462;2022-09-01T11:38:05;83.83;70.58;107.68;;
60872;Laerm;46714;50.118;14.462;2022-09-01T11:40:34;76.24;69.60;95.62;;
60872;Laerm;46714;50.118;14.462;2022-09-01T11:43:06;74.47;68.83;80.01;;
60872;Laerm;46714;50.118;14.462;2022-09-01T11:45:38;74.91;69.77;82.25;;
60872;Laerm;46714;50.118;14.462;2022-09-01T11:48:10;75.04;70.09;89.24;;
60872;Laerm;46714;50.118;14.462;2022-09-01T11:50:40;73.96;67.63;81.27;;
60872;Laerm;46714;50.118;14.462;2022-09-01T11:53:14;74.54;70.83;81.77;;
60872;Laerm;46714;50.118;14.462;2022-09-01T11:55:46;74.06;69.04;77.54;;
60872;Laerm;46714;50.118;14.462;2022-09-01T12:00:52;74.12;68.23;79.44;;
60872;Laerm;46714;50.118;14.462;2022-09-01T12:03:28;74.42;68.21;82.24;;
60872;Laerm;46714;50.118;14.462;2022-09-01T12:05:59;74.34;68.08;79.42;;
60872;Laerm;46714;50.118;14.462;2022-09-01T12:08:29;75.46;68.74;87.75;;
60872;Laerm;46714;50.118;14.462;2022-09-01T12:11:04;74.95;70.60;81.72;;
60872;Laerm;46714;50.118;14.462;2022-09-01T12:13:31;74.53;70.11;79.22;;
60872;Laerm;46714;50.118;14.462;2022-09-01T12:16:02;74.25;70.06;77.84;;
60872;Laerm;46714;50.118;14.462;2022-09-01T12:18:31;74.46;70.12;86.64;;
60872;Laerm;46714;50.118;14.462;2022-09-01T12:21:00;74.11;68.66;83.16;;
60872;Laerm;46714;50.118;14.462;2022-09-01T12:23:28;74.74;70.84;82.01;;
60872;Laerm;46714;50.118;14.462;2022-09-01T12:25:59;74.66;70.47;80.13;;
60872;Laerm;46714;50.118;14.462;2022-09-01T12:28:28;76.10;68.64;91.91;;
60872;Laerm;46714;50.118;14.462;2022-09-01T12:31:12;75.20;70.46;83.75;;
60872;Laerm;46714;50.118;14.462;2022-09-01T12:33:38;74.33;70.71;79.80;;
60872;Laerm;46714;50.118;14.462;2022-09-01T12:38:44;74.79;70.40;81.57;;
60872;Laerm;46714;50.118;14.462;2022-09-01T12:41:33;74.44;70.26;80.45;;
60872;Laerm;46714;50.118;14.462;2022-09-01T12:44:32;74.22;68.93;79.82;;
60872;Laerm;46714;50.118;14.462;2022-09-01T12:47:02;74.71;70.54;79.70;;
60872;Laerm;46714;50.118;14.462;2022-09-01T12:49:45;74.56;71.38;80.79;;
60872;Laerm;46714;50.118;14.462;2022-09-01T13:03:13;74.20;70.10;78.60;;
60872;Laerm;46714;50.118;14.462;2022-09-01T13:05:44;73.94;70.63;78.82;;
60872;Laerm;46714;50.118;14.462;2022-09-01T13:08:20;73.90;66.82;82.22;;
60872;Laerm;46714;50.118;14.462;2022-09-01T13:10:55;73.50;68.68;82.03;;
60872;Laerm;46714;50.118;14.462;2022-09-01T13:13:23;74.45;70.24;78.69;;
60872;Laerm;46714;50.118;14.462;2022-09-01T13:15:52;74.99;71.47;84.81;;
60872;Laerm;46714;50.118;14.462;2022-09-01T13:18:23;74.53;69.78;79.67;;
60872;Laerm;46714;50.118;14.462;2022-09-01T13:20:49;74.03;69.48;82.03;;
60872;Laerm;46714;50.118;14.462;2022-09-01T13:23:15;74.88;70.31;87.83;;
60872;Laerm;46714;50.118;14.462;2022-09-01T13:25:41;72.86;67.92;80.71;;
60872;Laerm;46714;50.118;14.462;2022-09-01T13:28:11;74.96;69.95;84.88;;
60872;Laerm;46714;50.118;14.462;2022-09-01T13:30:37;74.65;69.03;83.59;;
60872;Laerm;46714;50.118;14.462;2022-09-01T13:33:03;72.05;67.68;83.72;;
60872;Laerm;46714;50.118;14.462;2022-09-01T13:35:28;73.59;68.68;84.92;;
60872;Laerm;46714;50.118;14.462;2022-09-01T13:37:54;76.01;69.15;95.63;;
60872;Laerm;46714;50.118;14.462;2022-09-01T13:40:20;73.26;69.52;78.13;;
60872;Laerm;46714;50.118;14.462;2022-09-01T13:42:48;74.20;68.40;81.06;;
60872;Laerm;46714;50.118;14.462;2022-09-01T13:45:16;75.37;69.68;87.52;;
60872;Laerm;46714;50.118;14.462;2022-09-01T13:47:44;75.39;70.09;88.91;;
60872;Laerm;46714;50.118;14.462;2022-09-01T13:50:11;74.37;70.38;79.70;;
60872;Laerm;46714;50.118;14.462;2022-09-01T13:52:40;73.65;69.01;81.60;;
60872;Laerm;46714;50.118;14.462;2022-09-01T13:55:07;75.23;70.72;79.77;;
60872;Laerm;46714;50.118;14.462;2022-09-01T13:57:34;75.18;70.98;85.57;;
60872;Laerm;46714;50.118;14.462;2022-09-01T13:59:59;78.18;70.51;98.93;;
60872;Laerm;46714;50.118;14.462;2022-09-01T14:02:25;74.72;70.44;80.16;;
60872;Laerm;46714;50.118;14.462;2022-09-01T14:04:50;74.21;71.02;78.19;;
60872;Laerm;46714;50.118;14.462;2022-09-01T14:07:16;74.57;69.07;80.30;;
60872;Laerm;46714;50.118;14.462;2022-09-01T14:09:43;74.34;69.03;83.66;;
60872;Laerm;46714;50.118;14.462;2022-09-01T14:12:08;74.30;69.93;82.25;;
60872;Laerm;46714;50.118;14.462;2022-09-01T14:14:34;74.51;69.07;82.68;;
60872;Laerm;46714;50.118;14.462;2022-09-01T14:17:00;73.79;70.65;79.23;;
60872;Laerm;46714;50.118;14.462;2022-09-01T14:19:26;74.58;70.96;80.81;;
60872;Laerm;46714;50.118;14.462;2022-09-01T14:21:53;73.57;68.76;77.59;;
60872;Laerm;46714;50.118;14.462;2022-09-01T14:24:18;74.02;69.86;79.81;;
60872;Laerm;46714;50.118;14.462;2022-09-01T14:26:46;73.45;69.82;80.60;;
60872;Laerm;46714;50.118;14.462;2022-09-01T14:29:11;74.62;71.26;80.45;;
60872;Laerm;46714;50.118;14.462;2022-09-01T14:31:37;72.91;68.65;81.15;;
60872;Laerm;46714;50.118;14.462;2022-09-01T14:34:02;73.82;68.48;87.40;;
60872;Laerm;46714;50.118;14.462;2022-09-01T14:36:28;73.04;68.94;76.97;;
60872;Laerm;46714;50.118;14.462;2022-09-01T14:38:53;74.57;69.26;84.88;;
60872;Laerm;46714;50.118;14.462;2022-09-01T14:41:20;73.22;69.46;76.62;;
60872;Laerm;46714;50.118;14.462;2022-09-01T14:43:51;78.47;68.29;94.79;;
60872;Laerm;46714;50.118;14.462;2022-09-01T14:46:18;74.62;67.96;91.10;;
60872;Laerm;46714;50.118;14.462;2022-09-01T14:48:45;71.90;67.83;84.32;;
60872;Laerm;46714;50.118;14.462;2022-09-01T14:51:20;73.55;69.45;83.26;;
60872;Laerm;46714;50.118;14.462;2022-09-01T14:53:47;72.87;67.51;79.51;;